createdAt,value
2018-02-20T00:00:35.049Z,-1.10
2018-02-20T00:05:38.261Z,-1.00
2018-02-20T00:10:40.977Z,-1.00
2018-02-20T00:15:44.545Z,-1.20
2018-02-20T00:20:47.259Z,-1.20
2018-02-20T00:25:51.448Z,-1.20
2018-02-20T00:30:54.098Z,-1.20
2018-02-20T00:35:58.365Z,-1.40
2018-02-20T00:41:00.980Z,-1.40
2018-02-20T00:46:04.476Z,-1.60
2018-02-20T00:51:07.210Z,-1.60
2018-02-20T00:56:10.214Z,-1.60
2018-02-20T01:01:12.882Z,-1.60
2018-02-20T01:06:16.420Z,-1.60
2018-02-20T01:11:19.022Z,-1.70
2018-02-20T01:16:21.902Z,-1.70
2018-02-20T01:21:24.506Z,-1.80
2018-02-20T01:26:27.487Z,-1.70
2018-02-20T01:31:30.887Z,-1.80
2018-02-20T01:36:33.871Z,-1.80
2018-02-20T01:41:37.348Z,-1.90
2018-02-20T01:46:40.130Z,-1.90
2018-02-20T01:51:42.762Z,-2.00
2018-02-20T01:56:45.961Z,-2.00
2018-02-20T02:01:49.370Z,-2.00
2018-02-20T02:06:53.199Z,-2.00
2018-02-20T02:11:56.671Z,-2.00
2018-02-20T02:16:59.720Z,-2.10
2018-02-20T02:22:03.113Z,-2.00
2018-02-20T02:27:06.398Z,-2.10
2018-02-20T02:32:09.008Z,-2.10
2018-02-20T02:37:12.970Z,-2.00
2018-02-20T02:42:16.414Z,-2.20
2018-02-20T02:47:19.586Z,-2.20
2018-02-20T02:52:22.226Z,-2.10
2018-02-20T02:57:25.833Z,-2.20
2018-02-20T03:02:29.236Z,-2.30
2018-02-20T03:07:33.285Z,-2.30
2018-02-20T03:12:36.643Z,-2.20
2018-02-20T03:17:39.541Z,-2.20
2018-02-20T03:22:42.192Z,-2.20
2018-02-20T03:27:46.330Z,-2.30
2018-02-20T03:32:49.737Z,-2.50
2018-02-20T03:37:52.760Z,-2.50
2018-02-20T03:42:56.151Z,-2.50
2018-02-20T03:47:59.501Z,-2.50
2018-02-20T03:53:02.139Z,-2.50
2018-02-20T03:58:05.624Z,-2.50
2018-02-20T04:03:08.264Z,-2.60
2018-02-20T04:08:11.859Z,-2.60
2018-02-20T04:13:14.535Z,-2.60
2018-02-20T04:18:17.429Z,-2.70
2018-02-20T04:23:20.820Z,-2.80
2018-02-20T04:28:23.767Z,-2.80
2018-02-20T04:33:26.364Z,-2.80
2018-02-20T04:38:30.698Z,-2.70
2018-02-20T04:43:33.357Z,-2.70
2018-02-20T04:48:36.318Z,-2.80
2018-02-20T04:53:38.945Z,-2.90
2018-02-20T04:58:42.437Z,-3.00
2018-02-20T05:03:45.076Z,-2.80
2018-02-20T05:08:48.261Z,-2.90
2018-02-20T05:13:50.849Z,-3.10
2018-02-20T05:18:53.508Z,-3.10
2018-02-20T05:23:56.130Z,-3.10
2018-02-20T05:28:58.780Z,-3.10
2018-02-20T05:34:01.421Z,-3.00
2018-02-20T05:39:04.975Z,-3.10
2018-02-20T05:44:07.612Z,-3.10
2018-02-20T05:49:10.462Z,-3.10
2018-02-20T05:54:13.094Z,-3.20
2018-02-20T05:59:15.874Z,-3.30
2018-02-20T06:04:18.490Z,-3.30
2018-02-20T06:09:21.552Z,-3.30
2018-02-20T06:14:25.010Z,-3.30
2018-02-20T06:19:28.523Z,-3.30
2018-02-20T06:24:31.164Z,-3.20
2018-02-20T06:29:34.637Z,-3.10
2018-02-20T06:34:37.271Z,-3.10
2018-02-20T06:39:40.000Z,-3.00
2018-02-20T06:44:44.030Z,-2.90
2018-02-20T06:49:47.895Z,-2.80
2018-02-20T06:54:50.540Z,-2.80
2018-02-20T06:59:53.819Z,-2.60
2018-02-20T07:04:56.432Z,-2.70
2018-02-20T07:09:59.802Z,-2.60
2018-02-20T07:15:02.433Z,-2.50
2018-02-20T07:20:05.313Z,-2.40
2018-02-20T07:25:07.933Z,-2.30
2018-02-20T07:30:10.831Z,-2.30
2018-02-20T07:35:13.458Z,-2.10
2018-02-20T07:40:16.379Z,-2.00
2018-02-20T07:45:19.012Z,-1.90
2018-02-20T07:50:21.776Z,-1.80
2018-02-20T07:55:24.366Z,-1.90
2018-02-20T08:00:27.135Z,-1.70
2018-02-20T08:05:29.828Z,-1.50
2018-02-20T08:10:32.924Z,-1.60
2018-02-20T08:15:35.532Z,-1.30
2018-02-20T08:20:39.015Z,-1.10
2018-02-20T08:25:41.648Z,-0.90
2018-02-20T08:30:44.294Z,-0.70
2018-02-20T08:35:46.921Z,-0.60
2018-02-20T08:40:50.870Z,-0.30
2018-02-20T08:45:53.494Z,-0.30
2018-02-20T08:50:56.468Z,-0.10
2018-02-20T08:55:59.866Z,0.30
2018-02-20T09:01:03.405Z,0.30
2018-02-20T09:06:06.803Z,0.30
2018-02-20T09:11:11.027Z,0.50
2018-02-20T09:16:13.644Z,0.50
2018-02-20T09:21:17.868Z,1.00
2018-02-20T09:26:20.504Z,1.00
2018-02-20T09:31:24.047Z,2.20
2018-02-20T09:36:26.712Z,2.50
2018-02-20T09:41:29.769Z,2.80
2018-02-20T09:46:32.408Z,3.80
2018-02-20T09:51:36.716Z,4.80
2018-02-20T09:56:39.310Z,4.70
2018-02-20T10:01:42.092Z,5.70
2018-02-20T10:06:44.720Z,5.60
2018-02-20T10:11:47.497Z,5.40
2018-02-20T10:16:50.128Z,4.80
2018-02-20T10:21:53.195Z,5.00
2018-02-20T10:26:55.837Z,5.60
2018-02-20T10:31:58.623Z,6.20
2018-02-20T10:37:01.212Z,5.40
2018-02-20T10:42:04.319Z,7.30
2018-02-20T10:47:06.939Z,6.90
2018-02-20T10:52:10.549Z,6.70
2018-02-20T10:57:13.186Z,6.00
2018-02-20T11:02:17.544Z,6.10
2018-02-20T11:07:20.166Z,6.10
2018-02-20T11:12:23.023Z,6.70
2018-02-20T11:17:26.452Z,6.90
2018-02-20T11:22:30.785Z,8.70
2018-02-20T11:27:34.172Z,9.10
2018-02-20T11:32:37.250Z,9.10
2018-02-20T11:37:39.888Z,10.20
2018-02-20T11:42:44.750Z,9.60
2018-02-20T11:47:48.158Z,9.70
2018-02-20T11:52:51.626Z,9.70
2018-02-20T11:57:54.270Z,9.70
2018-02-20T12:02:57.251Z,11.30
2018-02-20T12:07:59.847Z,10.00
2018-02-20T12:13:03.023Z,10.80
2018-02-20T12:18:05.644Z,10.10
2018-02-20T12:23:08.946Z,10.20
2018-02-20T12:28:11.567Z,9.40
2018-02-20T12:33:14.920Z,10.30
2018-02-20T12:38:17.542Z,11.00
2018-02-20T12:43:20.327Z,12.20
2018-02-20T12:48:23.722Z,9.30
2018-02-20T12:53:27.011Z,9.30
2018-02-20T12:58:29.635Z,10.40
2018-02-20T13:03:33.112Z,11.00
2018-02-20T13:08:35.765Z,11.10
2018-02-20T13:13:38.544Z,10.80
2018-02-20T13:18:41.176Z,9.40
2018-02-20T13:23:44.828Z,9.70
2018-02-20T13:28:47.464Z,9.70
2018-02-20T13:33:50.457Z,9.30
2018-02-20T13:38:53.110Z,8.20
2018-02-20T13:43:56.649Z,10.90
2018-02-20T13:48:59.291Z,10.90
2018-02-20T13:54:02.064Z,10.90
2018-02-20T13:59:04.695Z,10.70
2018-02-20T14:04:07.881Z,10.10
2018-02-20T14:09:10.480Z,10.70
2018-02-20T14:14:13.757Z,9.90
2018-02-20T14:19:17.129Z,9.00
2018-02-20T14:24:20.701Z,9.00
2018-02-20T14:29:23.344Z,8.90
2018-02-20T14:34:26.526Z,8.50
2018-02-20T14:39:29.163Z,8.60
2018-02-20T14:44:32.438Z,8.10
2018-02-20T14:49:35.036Z,8.30
2018-02-20T14:54:38.599Z,8.50
2018-02-20T14:59:41.215Z,8.00
2018-02-20T15:04:44.286Z,7.90
2018-02-20T15:09:48.015Z,7.30
2018-02-20T15:14:51.042Z,7.10
2018-02-20T15:19:53.677Z,6.80
2018-02-20T15:24:57.900Z,5.20
2018-02-20T15:30:01.287Z,4.70
2018-02-20T15:35:04.238Z,4.70
2018-02-20T15:40:06.874Z,4.20
2018-02-20T15:45:10.355Z,4.10
2018-02-20T15:50:12.979Z,3.70
2018-02-20T15:55:16.252Z,3.60
2018-02-20T16:00:19.644Z,3.30
2018-02-20T16:05:23.106Z,3.20
2018-02-20T16:10:25.805Z,3.10
2018-02-20T16:15:28.417Z,2.90
2018-02-20T16:20:31.229Z,2.70
2018-02-20T16:25:35.341Z,2.60
2018-02-20T16:30:37.949Z,2.50
2018-02-20T16:35:41.251Z,2.40
2018-02-20T16:40:44.656Z,2.10
2018-02-20T16:45:48.964Z,2.10
2018-02-20T16:50:51.719Z,2.10
2018-02-20T16:55:55.025Z,2.00
2018-02-20T17:00:57.643Z,1.70
2018-02-20T17:06:00.588Z,1.60
2018-02-20T17:11:04.034Z,1.40
2018-02-20T17:16:08.291Z,1.30
2018-02-20T17:21:10.965Z,1.30
2018-02-20T17:26:14.382Z,1.10
2018-02-20T17:31:17.045Z,1.10
2018-02-20T17:36:19.741Z,1.00
2018-02-20T17:41:22.380Z,0.80
2018-02-20T17:46:26.427Z,0.50
2018-02-20T17:51:30.050Z,0.40
2018-02-20T17:56:33.387Z,0.40
2018-02-20T18:01:36.036Z,0.30
2018-02-20T18:06:39.691Z,0.20
2018-02-20T18:11:42.313Z,0.20
2018-02-20T18:16:45.525Z,0.20
2018-02-20T18:21:48.123Z,0.10
2018-02-20T18:26:51.374Z,0.10
2018-02-20T18:31:54.113Z,0.00
2018-02-20T18:36:57.676Z,0.00
2018-02-20T18:42:00.448Z,0.50
2018-02-20T18:47:04.053Z,0.10
2018-02-20T18:52:07.115Z,0.00
2018-02-20T18:57:09.802Z,-0.10
2018-02-20T19:02:12.509Z,-0.20
2018-02-20T19:07:16.268Z,-0.30
2018-02-20T19:12:19.324Z,-0.30
2018-02-20T19:17:22.412Z,-0.30
2018-02-20T19:22:25.613Z,-0.40
2018-02-20T19:27:29.966Z,-0.30
2018-02-20T19:32:32.659Z,-0.30
2018-02-20T19:37:36.303Z,-0.40
2018-02-20T19:42:39.033Z,-0.40
2018-02-20T19:47:42.536Z,-0.60
2018-02-20T19:52:45.494Z,-0.60
2018-02-20T19:57:49.038Z,-0.80
2018-02-20T20:02:51.660Z,-0.80
2018-02-20T20:07:54.932Z,-0.80
2018-02-20T20:12:58.673Z,-0.80
2018-02-20T20:18:01.648Z,-0.80
2018-02-20T20:23:04.300Z,-0.90
2018-02-20T20:28:07.270Z,-1.00
2018-02-20T20:33:11.002Z,-0.90
2018-02-20T20:38:13.846Z,-0.90
2018-02-20T20:43:16.484Z,-1.00
2018-02-20T20:48:20.821Z,-0.90
2018-02-20T20:53:23.672Z,-1.00
2018-02-20T20:58:27.065Z,-1.00
2018-02-20T21:03:30.100Z,-1.10
2018-02-20T21:08:33.263Z,-1.20
2018-02-20T21:13:35.983Z,-1.20
2018-02-20T21:18:40.118Z,-1.20
2018-02-20T21:23:43.506Z,-1.20
2018-02-20T21:28:46.547Z,-1.30
2018-02-20T21:33:49.688Z,-1.30
2018-02-20T21:38:53.489Z,-1.30
2018-02-20T21:43:56.141Z,-1.40
2018-02-20T21:48:59.689Z,-1.50
2018-02-20T21:54:03.077Z,-1.60
2018-02-20T21:59:06.450Z,-1.60
2018-02-20T22:04:09.244Z,-1.50
2018-02-20T22:09:12.189Z,-1.50
2018-02-20T22:14:14.822Z,-1.50
2018-02-20T22:19:18.690Z,-1.60
2018-02-20T22:24:21.371Z,-1.50
2018-02-20T22:29:24.687Z,-1.50
2018-02-20T22:34:27.313Z,-1.60
2018-02-20T22:39:30.885Z,-1.60
2018-02-20T22:44:34.331Z,-1.60
2018-02-20T22:49:37.954Z,-1.60
2018-02-20T22:54:40.596Z,-1.60
2018-02-20T22:59:44.159Z,-1.60
2018-02-20T23:04:46.860Z,-1.60
2018-02-20T23:09:50.629Z,-1.70
2018-02-20T23:14:53.259Z,-1.80
2018-02-20T23:19:56.505Z,-1.70
2018-02-20T23:24:59.300Z,-1.70
2018-02-20T23:30:02.729Z,-1.80
2018-02-20T23:35:05.444Z,-1.80
2018-02-20T23:40:08.392Z,-1.80
2018-02-20T23:45:11.815Z,-1.90
2018-02-20T23:50:15.320Z,-1.90
2018-02-20T23:55:18.031Z,-1.90
